createdAt,value
2023-05-17T00:00:25.716Z,0.73
2023-05-17T00:02:52.276Z,0.55
2023-05-17T00:05:18.854Z,0.75
2023-05-17T00:07:47.201Z,0.90
2023-05-17T00:10:13.803Z,0.68
2023-05-17T00:12:40.372Z,0.57
2023-05-17T00:15:07.168Z,0.60
2023-05-17T00:17:33.738Z,0.40
2023-05-17T00:20:00.341Z,0.63
2023-05-17T00:22:27.090Z,0.70
2023-05-17T00:24:55.592Z,0.80
2023-05-17T00:27:22.152Z,0.85
2023-05-17T00:29:48.714Z,0.70
2023-05-17T00:32:15.184Z,0.75
2023-05-17T00:34:41.723Z,0.98
2023-05-17T00:37:08.268Z,0.70
2023-05-17T00:39:34.794Z,0.68
2023-05-17T00:42:01.501Z,0.75
2023-05-17T00:44:28.100Z,1.00
2023-05-17T00:46:54.746Z,0.80
2023-05-17T00:49:21.249Z,0.75
2023-05-17T00:51:48.534Z,1.15
2023-05-17T00:54:15.933Z,1.00
2023-05-17T00:56:42.997Z,0.77
2023-05-17T00:59:12.861Z,0.68
2023-05-17T01:01:42.506Z,0.73
2023-05-17T01:04:10.672Z,0.80
2023-05-17T01:06:37.624Z,0.93
2023-05-17T01:09:05.408Z,0.80
2023-05-17T01:11:56.412Z,1.20
2023-05-17T01:14:47.297Z,0.90
2023-05-17T01:17:23.123Z,0.60
2023-05-17T01:19:52.852Z,0.98
2023-05-17T01:23:25.015Z,0.95
2023-05-17T01:26:04.506Z,1.00
2023-05-17T01:28:35.992Z,1.23
2023-05-17T01:31:05.316Z,0.70
2023-05-17T01:33:32.643Z,0.52
2023-05-17T01:35:59.208Z,1.10
2023-05-17T01:38:25.807Z,0.80
2023-05-17T01:41:16.189Z,0.90
2023-05-17T01:43:59.828Z,1.17
2023-05-17T01:46:48.028Z,0.90
2023-05-17T01:49:23.687Z,0.90
2023-05-17T01:51:53.170Z,1.10
2023-05-17T01:54:39.178Z,0.80
2023-05-17T01:57:28.420Z,1.02
2023-05-17T01:59:56.803Z,1.00
2023-05-17T02:02:23.499Z,0.90
2023-05-17T02:04:51.587Z,1.02
2023-05-17T02:07:18.132Z,0.98
2023-05-17T02:09:44.636Z,1.30
2023-05-17T02:12:11.094Z,0.80
2023-05-17T02:14:39.577Z,1.17
2023-05-17T02:17:06.055Z,0.90
2023-05-17T02:19:32.829Z,0.90
2023-05-17T02:21:59.992Z,0.98
2023-05-17T02:24:26.941Z,1.20
2023-05-17T02:26:53.399Z,1.13
2023-05-17T02:29:19.887Z,1.10
2023-05-17T02:31:46.445Z,1.27
2023-05-17T02:34:12.889Z,1.30
2023-05-17T02:36:41.094Z,1.10
2023-05-17T02:39:07.589Z,1.00
2023-05-17T02:41:34.046Z,1.08
2023-05-17T02:44:00.564Z,1.02
2023-05-17T02:46:27.189Z,1.10
2023-05-17T02:48:53.642Z,1.42
2023-05-17T02:51:20.190Z,1.67
2023-05-17T02:53:46.670Z,1.17
2023-05-17T02:56:13.569Z,1.10
2023-05-17T02:58:40.007Z,1.15
2023-05-17T03:01:06.512Z,1.20
2023-05-17T03:03:33.210Z,1.20
2023-05-17T03:06:01.521Z,1.55
2023-05-17T03:08:28.189Z,1.50
2023-05-17T03:10:54.611Z,1.35
2023-05-17T03:13:23.163Z,1.20
2023-05-17T03:15:49.635Z,1.60
2023-05-17T03:18:16.342Z,1.75
2023-05-17T03:20:45.996Z,1.73
2023-05-17T03:23:12.591Z,1.30
2023-05-17T03:25:39.082Z,1.48
2023-05-17T03:28:06.270Z,1.50
2023-05-17T03:30:33.007Z,1.58
2023-05-17T03:32:59.532Z,1.38
2023-05-17T03:35:26.131Z,1.20
2023-05-17T03:37:52.671Z,1.58
2023-05-17T03:40:19.200Z,1.60
2023-05-17T03:42:45.821Z,1.30
2023-05-17T03:45:13.021Z,1.60
2023-05-17T03:47:39.559Z,1.73
2023-05-17T03:50:06.649Z,1.25
2023-05-17T03:52:33.215Z,1.63
2023-05-17T03:54:59.643Z,1.80
2023-05-17T03:57:26.204Z,1.45
2023-05-17T03:59:52.654Z,1.45
2023-05-17T04:02:19.978Z,1.27
2023-05-17T04:04:50.831Z,1.30
2023-05-17T04:07:17.863Z,1.70
2023-05-17T04:09:44.967Z,1.50
2023-05-17T04:12:11.567Z,1.48
2023-05-17T04:14:38.538Z,1.48
2023-05-17T04:17:05.262Z,1.35
2023-05-17T04:19:31.845Z,1.67
2023-05-17T04:21:58.389Z,1.42
2023-05-17T04:24:24.876Z,1.35
2023-05-17T04:26:51.499Z,1.40
2023-05-17T04:29:17.957Z,1.35
2023-05-17T04:31:44.432Z,1.60
2023-05-17T04:34:10.946Z,1.08
2023-05-17T04:36:37.549Z,1.65
2023-05-17T04:39:04.859Z,1.58
2023-05-17T04:41:31.946Z,1.50
2023-05-17T04:44:00.616Z,1.50
2023-05-17T04:46:27.346Z,1.77
2023-05-17T04:48:56.272Z,1.85
2023-05-17T04:51:22.903Z,1.92
2023-05-17T04:53:49.400Z,1.83
2023-05-17T04:56:16.342Z,1.92
2023-05-17T04:58:42.838Z,1.95
2023-05-17T05:01:09.375Z,1.58
2023-05-17T05:03:36.715Z,1.92
2023-05-17T05:06:04.141Z,1.90
2023-05-17T05:08:34.534Z,1.75
2023-05-17T05:11:00.974Z,1.58
2023-05-17T05:13:27.784Z,1.95
2023-05-17T05:15:57.245Z,2.00
2023-05-17T05:18:23.776Z,1.50
2023-05-17T05:20:50.367Z,1.70
2023-05-17T05:23:18.547Z,1.83
2023-05-17T05:25:45.088Z,1.67
2023-05-17T05:28:12.208Z,1.90
2023-05-17T05:30:39.341Z,1.60
2023-05-17T05:33:05.820Z,2.20
2023-05-17T05:35:32.329Z,1.55
2023-05-17T05:37:59.818Z,2.10
2023-05-17T05:40:26.617Z,1.90
2023-05-17T05:42:53.424Z,2.00
2023-05-17T05:45:20.327Z,2.05
2023-05-17T05:47:47.011Z,1.73
2023-05-17T05:50:13.601Z,2.55
2023-05-17T05:52:40.039Z,2.10
2023-05-17T05:55:07.052Z,2.42
2023-05-17T05:57:33.529Z,1.92
2023-05-17T06:00:00.123Z,2.53
2023-05-17T06:02:26.737Z,2.60
2023-05-17T06:04:53.225Z,2.45
2023-05-17T06:07:19.686Z,2.50
2023-05-17T06:09:46.345Z,2.28
2023-05-17T06:12:12.963Z,2.42
2023-05-17T06:14:39.557Z,2.10
2023-05-17T06:17:06.630Z,2.67
2023-05-17T06:19:33.162Z,2.65
2023-05-17T06:21:59.881Z,2.15
2023-05-17T06:24:26.372Z,2.10
2023-05-17T06:26:52.830Z,2.25
2023-05-17T06:29:19.292Z,2.40
2023-05-17T06:31:45.738Z,2.53
2023-05-17T06:34:12.279Z,2.08
2023-05-17T06:36:38.899Z,1.70
2023-05-17T06:39:05.478Z,2.25
2023-05-17T06:41:32.051Z,1.80
2023-05-17T06:43:58.510Z,2.45
2023-05-17T06:46:25.077Z,1.95
2023-05-17T06:48:53.702Z,2.05
2023-05-17T06:51:20.460Z,2.30
2023-05-17T06:53:46.932Z,2.20
2023-05-17T06:56:14.526Z,1.85
2023-05-17T06:58:40.964Z,2.28
2023-05-17T07:01:07.974Z,2.03
2023-05-17T07:03:35.820Z,1.85
2023-05-17T07:06:02.486Z,1.80
2023-05-17T07:08:29.011Z,2.60
2023-05-17T07:10:55.524Z,2.05
2023-05-17T07:13:22.053Z,2.47
2023-05-17T07:15:48.613Z,2.20
2023-05-17T07:18:15.213Z,1.80
2023-05-17T07:20:41.907Z,1.55
2023-05-17T07:23:08.470Z,1.77
2023-05-17T07:25:38.562Z,2.03
2023-05-17T07:28:05.279Z,2.13
2023-05-17T07:30:31.789Z,1.80
2023-05-17T07:32:58.298Z,1.70
2023-05-17T07:35:24.785Z,1.83
2023-05-17T07:37:51.399Z,1.48
2023-05-17T07:40:18.264Z,1.60
2023-05-17T07:42:44.763Z,1.60
2023-05-17T07:45:11.433Z,1.70
2023-05-17T07:47:37.987Z,1.45
2023-05-17T07:50:04.944Z,1.40
2023-05-17T07:52:31.428Z,1.35
2023-05-17T07:54:58.137Z,1.50
2023-05-17T07:57:24.824Z,1.65
2023-05-17T07:59:51.440Z,1.50
2023-05-17T08:02:17.945Z,1.58
2023-05-17T08:04:45.474Z,1.40
2023-05-17T08:07:11.970Z,2.08
2023-05-17T08:09:40.126Z,2.00
2023-05-17T08:12:06.721Z,1.90
2023-05-17T08:14:33.227Z,1.83
2023-05-17T08:16:59.847Z,1.70
2023-05-17T08:19:26.773Z,2.05
2023-05-17T08:21:53.426Z,1.77
2023-05-17T08:24:19.965Z,1.58
2023-05-17T08:26:46.444Z,2.08
2023-05-17T08:29:12.905Z,2.08
2023-05-17T08:31:39.575Z,2.10
2023-05-17T08:34:06.398Z,1.98
2023-05-17T08:36:33.035Z,1.85
2023-05-17T08:38:59.572Z,1.90
2023-05-17T08:41:26.165Z,1.90
2023-05-17T08:43:54.751Z,1.65
2023-05-17T08:46:23.625Z,1.88
2023-05-17T08:48:51.946Z,1.30
2023-05-17T08:51:19.988Z,1.30
2023-05-17T08:53:47.529Z,1.38
2023-05-17T08:56:16.452Z,1.30
2023-05-17T08:58:55.592Z,1.50
2023-05-17T09:01:25.826Z,1.40
2023-05-17T09:03:53.844Z,1.73
2023-05-17T09:06:21.514Z,1.30
2023-05-17T09:08:51.232Z,1.20
2023-05-17T09:11:30.946Z,1.25
2023-05-17T09:14:05.853Z,1.38
2023-05-17T09:19:00.376Z,1.30
2023-05-17T09:21:28.080Z,1.50
2023-05-17T09:24:05.244Z,1.30
2023-05-17T09:26:40.583Z,1.17
2023-05-17T09:29:12.008Z,1.25
2023-05-17T09:31:39.873Z,0.93
2023-05-17T09:34:08.153Z,1.20
2023-05-17T09:36:42.188Z,1.65
2023-05-17T09:39:13.652Z,1.23
2023-05-17T09:41:47.000Z,1.20
2023-05-17T09:44:14.714Z,1.05
2023-05-17T09:46:46.032Z,1.08
2023-05-17T09:49:12.770Z,1.30
2023-05-17T09:51:42.581Z,0.90
2023-05-17T09:54:10.450Z,1.52
2023-05-17T09:56:37.468Z,1.08
2023-05-17T09:59:10.950Z,1.92
2023-05-17T10:01:45.136Z,1.00
2023-05-17T10:04:13.448Z,1.10
2023-05-17T10:09:14.339Z,1.55
2023-05-17T10:11:46.021Z,1.30
2023-05-17T10:14:23.476Z,1.00
2023-05-17T10:16:51.691Z,1.10
2023-05-17T10:19:20.889Z,1.33
2023-05-17T10:21:52.619Z,1.35
2023-05-17T10:24:24.201Z,1.23
2023-05-17T10:26:53.634Z,1.67
2023-05-17T10:29:21.248Z,1.17
2023-05-17T10:31:50.976Z,1.52
2023-05-17T10:34:18.915Z,1.20
2023-05-17T10:36:46.174Z,1.20
2023-05-17T10:39:15.625Z,1.15
2023-05-17T10:41:44.845Z,1.38
2023-05-17T10:44:14.650Z,1.40
2023-05-17T10:46:50.653Z,1.88
2023-05-17T10:49:20.272Z,1.10
2023-05-17T10:51:51.193Z,1.20
2023-05-17T10:54:20.690Z,1.08
2023-05-17T10:56:48.085Z,1.20
2023-05-17T10:59:57.737Z,1.00
2023-05-17T11:02:24.752Z,1.23
2023-05-17T11:04:53.707Z,1.10
2023-05-17T11:07:23.858Z,1.00
2023-05-17T11:10:08.717Z,0.98
2023-05-17T11:12:43.745Z,0.82
2023-05-17T11:15:13.536Z,0.88
2023-05-17T11:17:42.989Z,0.90
2023-05-17T11:20:30.241Z,1.05
2023-05-17T11:23:06.110Z,1.40
2023-05-17T11:25:37.673Z,1.00
2023-05-17T11:28:19.259Z,1.23
2023-05-17T11:30:52.114Z,1.25
2023-05-17T11:33:33.192Z,1.38
2023-05-17T11:36:06.512Z,1.02
2023-05-17T11:38:34.219Z,1.10
2023-05-17T11:43:52.116Z,1.40
2023-05-17T11:46:20.877Z,0.90
2023-05-17T11:48:48.102Z,1.02
2023-05-17T11:51:17.887Z,1.25
2023-05-17T11:53:47.092Z,1.38
2023-05-17T11:56:15.099Z,0.88
2023-05-17T11:58:43.326Z,1.10
2023-05-17T12:01:10.622Z,1.08
2023-05-17T12:03:37.238Z,1.05
2023-05-17T12:06:05.516Z,1.75
2023-05-17T12:08:36.808Z,1.15
2023-05-17T12:11:07.792Z,0.95
2023-05-17T12:13:35.675Z,1.13
2023-05-17T12:16:05.847Z,1.00
2023-05-17T12:18:40.463Z,1.45
2023-05-17T12:21:09.420Z,1.08
2023-05-17T12:23:38.186Z,1.42
2023-05-17T12:26:18.839Z,1.38
2023-05-17T12:28:46.313Z,1.25
2023-05-17T12:31:17.142Z,1.38
2023-05-17T12:33:45.080Z,1.10
2023-05-17T12:36:13.002Z,0.95
2023-05-17T12:38:41.666Z,1.10
2023-05-17T12:41:12.813Z,1.27
2023-05-17T12:43:40.486Z,1.58
2023-05-17T12:46:09.766Z,0.82
2023-05-17T12:48:37.881Z,0.98
2023-05-17T12:51:11.165Z,1.00
2023-05-17T12:53:43.202Z,1.15
2023-05-17T12:56:16.312Z,1.00
2023-05-17T12:58:42.943Z,0.80
2023-05-17T13:01:14.248Z,1.40
2023-05-17T13:03:44.194Z,1.35
2023-05-17T13:06:11.202Z,1.15
2023-05-17T13:08:37.756Z,1.42
2023-05-17T13:11:12.717Z,0.80
2023-05-17T13:13:43.363Z,0.90
2023-05-17T13:16:09.920Z,1.13
2023-05-17T13:18:50.305Z,0.80
2023-05-17T13:21:19.206Z,0.90
2023-05-17T13:23:48.531Z,1.20
2023-05-17T13:26:18.841Z,1.00
2023-05-17T13:28:46.255Z,1.48
2023-05-17T13:31:12.920Z,1.20
2023-05-17T13:33:39.553Z,0.90
2023-05-17T13:36:06.590Z,1.38
2023-05-17T13:38:33.060Z,1.30
2023-05-17T13:40:59.576Z,1.23
2023-05-17T13:43:26.030Z,1.15
2023-05-17T13:45:56.761Z,1.05
2023-05-17T13:48:23.345Z,0.88
2023-05-17T13:50:50.966Z,0.95
2023-05-17T13:53:18.168Z,1.10
2023-05-17T13:55:44.983Z,1.10
2023-05-17T13:58:11.735Z,1.08
2023-05-17T14:00:41.288Z,0.85
2023-05-17T14:03:08.166Z,0.98
2023-05-17T14:05:36.556Z,1.15
2023-05-17T14:08:03.650Z,1.27
2023-05-17T14:10:30.615Z,1.23
2023-05-17T14:12:57.286Z,1.10
2023-05-17T14:15:24.554Z,1.00
2023-05-17T14:17:51.338Z,1.23
2023-05-17T14:20:18.145Z,1.05
2023-05-17T14:22:44.883Z,1.10
2023-05-17T14:25:11.662Z,0.90
2023-05-17T14:27:38.209Z,0.88
2023-05-17T14:30:05.294Z,1.05
2023-05-17T14:32:31.962Z,1.20
2023-05-17T14:34:58.429Z,1.52
2023-05-17T14:37:25.292Z,1.15
2023-05-17T14:40:05.226Z,1.20
2023-05-17T14:42:33.180Z,0.90
2023-05-17T14:45:00.148Z,1.05
2023-05-17T14:47:26.700Z,1.38
2023-05-17T14:49:53.202Z,1.17
2023-05-17T14:52:20.049Z,1.20
2023-05-17T14:54:46.594Z,1.00
2023-05-17T14:57:13.776Z,1.02
2023-05-17T14:59:41.363Z,1.27
2023-05-17T15:02:09.357Z,1.50
2023-05-17T15:04:36.099Z,1.63
2023-05-17T15:07:02.798Z,1.15
2023-05-17T15:09:31.019Z,1.00
2023-05-17T15:11:57.776Z,1.45
2023-05-17T15:14:24.887Z,1.10
2023-05-17T15:16:52.746Z,1.17
2023-05-17T15:19:19.499Z,1.45
2023-05-17T15:21:46.627Z,1.15
2023-05-17T15:24:16.468Z,1.10
2023-05-17T15:26:44.450Z,1.10
2023-05-17T15:29:10.950Z,1.60
2023-05-17T15:31:37.432Z,1.48
2023-05-17T15:34:04.833Z,1.35
2023-05-17T15:36:31.589Z,1.05
2023-05-17T15:38:58.138Z,1.10
2023-05-17T15:41:29.854Z,0.90
2023-05-17T15:43:56.693Z,1.33
2023-05-17T15:46:23.301Z,1.25
2023-05-17T15:48:49.865Z,1.05
2023-05-17T15:51:16.473Z,1.02
2023-05-17T15:53:42.986Z,1.27
2023-05-17T15:56:10.259Z,0.98
2023-05-17T15:58:36.864Z,1.55
2023-05-17T16:01:04.616Z,1.02
2023-05-17T16:03:33.353Z,1.30
2023-05-17T16:06:00.124Z,1.08
2023-05-17T16:08:26.932Z,1.17
2023-05-17T16:10:53.472Z,1.20
2023-05-17T16:13:19.929Z,0.93
2023-05-17T16:15:46.511Z,1.00
2023-05-17T16:18:14.967Z,1.15
2023-05-17T16:20:41.976Z,1.10
2023-05-17T16:23:08.652Z,1.23
2023-05-17T16:25:36.052Z,1.20
2023-05-17T16:28:02.591Z,0.98
2023-05-17T16:30:29.047Z,1.05
2023-05-17T16:32:55.563Z,1.05
2023-05-17T16:35:22.535Z,1.02
2023-05-17T16:37:49.890Z,1.10
2023-05-17T16:40:16.922Z,1.20
2023-05-17T16:42:44.459Z,1.60
2023-05-17T16:45:11.444Z,0.80
2023-05-17T16:47:38.173Z,1.10
2023-05-17T16:50:05.649Z,1.02
2023-05-17T16:52:32.119Z,1.00
2023-05-17T16:55:03.271Z,0.88
2023-05-17T16:57:31.780Z,0.98
2023-05-17T17:00:00.804Z,0.93
2023-05-17T17:02:28.296Z,1.10
2023-05-17T17:04:55.097Z,0.90
2023-05-17T17:07:21.612Z,1.30
2023-05-17T17:09:48.105Z,1.10
2023-05-17T17:12:24.087Z,0.90
2023-05-17T17:14:51.584Z,0.88
2023-05-17T17:17:18.040Z,0.90
2023-05-17T17:19:44.488Z,1.20
2023-05-17T17:22:11.815Z,0.88
2023-05-17T17:24:38.584Z,0.88
2023-05-17T17:27:05.687Z,1.00
2023-05-17T17:29:35.443Z,0.95
2023-05-17T17:32:02.309Z,1.17
2023-05-17T17:34:29.087Z,1.30
2023-05-17T17:36:55.750Z,1.00
2023-05-17T17:39:22.223Z,1.08
2023-05-17T17:41:48.783Z,1.27
2023-05-17T17:44:15.300Z,1.10
2023-05-17T17:46:42.372Z,0.75
2023-05-17T17:49:08.820Z,1.40
2023-05-17T17:51:35.345Z,1.05
2023-05-17T17:54:03.677Z,1.00
2023-05-17T17:56:30.467Z,1.10
2023-05-17T17:58:57.145Z,1.20
2023-05-17T18:01:23.720Z,1.08
2023-05-17T18:03:50.191Z,0.90
2023-05-17T18:06:16.639Z,0.80
2023-05-17T18:08:43.086Z,1.00
2023-05-17T18:11:09.603Z,0.98
2023-05-17T18:13:36.148Z,1.30
2023-05-17T18:16:02.687Z,0.80
2023-05-17T18:18:29.200Z,1.25
2023-05-17T18:20:55.958Z,1.15
2023-05-17T18:23:22.489Z,0.77
2023-05-17T18:25:50.661Z,0.90
2023-05-17T18:28:23.958Z,0.95
2023-05-17T18:30:58.071Z,0.80
2023-05-17T18:33:25.174Z,1.20
2023-05-17T18:35:51.704Z,1.00
2023-05-17T18:38:18.216Z,0.98
2023-05-17T18:40:45.027Z,1.05
2023-05-17T18:43:12.882Z,1.10
2023-05-17T18:45:39.393Z,1.30
2023-05-17T18:48:06.312Z,1.20
2023-05-17T18:50:32.859Z,1.00
2023-05-17T18:53:02.317Z,1.85
2023-05-17T18:55:28.791Z,1.00
2023-05-17T18:57:55.292Z,1.00
2023-05-17T19:00:21.775Z,1.08
2023-05-17T19:02:48.373Z,1.25
2023-05-17T19:05:15.133Z,1.15
2023-05-17T19:07:41.734Z,1.33
2023-05-17T19:10:08.570Z,0.90
2023-05-17T19:12:35.551Z,1.20
2023-05-17T19:15:03.061Z,0.93
2023-05-17T19:17:29.888Z,1.02
2023-05-17T19:19:56.466Z,1.00
2023-05-17T19:22:22.934Z,0.95
2023-05-17T19:24:50.705Z,1.08
2023-05-17T19:27:19.629Z,1.10
2023-05-17T19:29:47.062Z,1.08
2023-05-17T19:32:13.681Z,1.20
2023-05-17T19:34:40.443Z,1.10
2023-05-17T19:37:07.227Z,1.10
2023-05-17T19:39:33.700Z,1.05
2023-05-17T19:42:00.188Z,1.10
2023-05-17T19:44:26.718Z,1.38
2023-05-17T19:46:53.215Z,1.15
2023-05-17T19:49:19.807Z,1.30
2023-05-17T19:51:46.651Z,1.40
2023-05-17T19:54:13.145Z,1.52
2023-05-17T19:56:40.102Z,1.50
2023-05-17T19:59:06.612Z,1.60
2023-05-17T20:01:33.109Z,1.60
2023-05-17T20:03:59.661Z,1.70
2023-05-17T20:06:26.423Z,1.95
2023-05-17T20:08:52.908Z,2.15
2023-05-17T20:11:19.502Z,1.90
2023-05-17T20:13:46.090Z,1.90
2023-05-17T20:16:13.328Z,1.90
2023-05-17T20:18:42.982Z,1.40
2023-05-17T20:21:11.227Z,1.08
2023-05-17T20:23:38.147Z,1.55
2023-05-17T20:26:04.843Z,1.58
2023-05-17T20:28:31.319Z,1.50
2023-05-17T20:30:57.897Z,1.15
2023-05-17T20:33:26.696Z,1.27
2023-05-17T20:38:20.676Z,1.13
2023-05-17T20:40:47.261Z,1.67
2023-05-17T20:43:14.495Z,1.17
2023-05-17T20:45:41.267Z,1.20
2023-05-17T20:48:08.100Z,1.42
2023-05-17T20:50:34.671Z,1.30
2023-05-17T20:53:01.170Z,1.15
2023-05-17T20:55:27.760Z,1.35
2023-05-17T20:57:54.403Z,1.85
2023-05-17T21:00:21.279Z,1.20
2023-05-17T21:02:48.013Z,1.00
2023-05-17T21:05:14.871Z,1.05
2023-05-17T21:07:41.396Z,1.30
2023-05-17T21:10:09.155Z,1.40
2023-05-17T21:12:36.061Z,1.55
2023-05-17T21:15:18.535Z,1.30
2023-05-17T21:17:45.248Z,1.40
2023-05-17T21:20:12.133Z,1.50
2023-05-17T21:22:38.730Z,1.33
2023-05-17T21:25:05.867Z,1.35
2023-05-17T21:27:36.755Z,1.20
2023-05-17T21:30:03.563Z,1.30
2023-05-17T21:32:30.390Z,1.33
2023-05-17T21:34:58.272Z,1.08
2023-05-17T21:37:24.772Z,1.17
2023-05-17T21:39:51.272Z,1.10
2023-05-17T21:42:17.927Z,1.08
2023-05-17T21:44:44.527Z,1.08
2023-05-17T21:47:11.020Z,1.20
2023-05-17T21:49:37.574Z,1.33
2023-05-17T21:52:04.330Z,1.50
2023-05-17T21:54:30.857Z,1.30
2023-05-17T21:56:57.451Z,1.55
2023-05-17T21:59:25.041Z,1.23
2023-05-17T22:01:55.153Z,1.42
2023-05-17T22:04:21.762Z,2.22
2023-05-17T22:06:48.301Z,1.50
2023-05-17T22:09:14.924Z,1.65
2023-05-17T22:11:41.456Z,1.20
2023-05-17T22:14:07.945Z,1.88
2023-05-17T22:16:35.858Z,1.58
2023-05-17T22:19:03.791Z,1.63
2023-05-17T22:21:31.594Z,1.38
2023-05-17T22:23:59.124Z,1.35
2023-05-17T22:26:25.758Z,1.60
2023-05-17T22:28:52.469Z,1.13
2023-05-17T22:31:19.748Z,1.73
2023-05-17T22:33:46.554Z,1.20
2023-05-17T22:36:14.157Z,1.15
2023-05-17T22:38:42.565Z,1.30
2023-05-17T22:41:13.200Z,1.20
2023-05-17T22:43:39.866Z,1.48
2023-05-17T22:46:06.530Z,1.70
2023-05-17T22:48:33.242Z,1.55
2023-05-17T22:51:01.117Z,1.48
2023-05-17T22:53:31.668Z,1.73
2023-05-17T22:55:58.302Z,1.25
2023-05-17T22:58:24.793Z,1.17
2023-05-17T23:00:52.110Z,1.30
2023-05-17T23:03:19.616Z,1.40
2023-05-17T23:05:46.152Z,1.13
2023-05-17T23:08:15.268Z,1.13
2023-05-17T23:10:45.508Z,1.33
2023-05-17T23:13:12.938Z,1.38
2023-05-17T23:15:40.861Z,1.55
2023-05-17T23:18:07.606Z,1.23
2023-05-17T23:20:35.916Z,1.20
2023-05-17T23:23:02.384Z,1.48
2023-05-17T23:25:29.699Z,1.08
2023-05-17T23:27:58.091Z,1.30
2023-05-17T23:30:26.285Z,1.70
2023-05-17T23:32:52.938Z,1.52
2023-05-17T23:35:19.445Z,1.38
2023-05-17T23:37:46.079Z,1.30
2023-05-17T23:40:14.599Z,1.10
2023-05-17T23:42:41.725Z,1.20
2023-05-17T23:45:09.820Z,1.30
2023-05-17T23:47:40.634Z,1.58
2023-05-17T23:50:11.836Z,1.48
2023-05-17T23:52:43.354Z,1.40
2023-05-17T23:55:09.854Z,1.98
2023-05-17T23:57:36.614Z,1.20
